createdAt,value
2023-02-04T00:01:59.558Z,5.20
2023-02-04T00:04:26.282Z,5.20
2023-02-04T00:06:53.155Z,5.20
2023-02-04T00:09:19.896Z,5.20
2023-02-04T00:11:46.498Z,5.20
2023-02-04T00:14:13.136Z,5.20
2023-02-04T00:16:39.808Z,5.20
2023-02-04T00:19:06.535Z,5.20
2023-02-04T00:21:33.142Z,5.20
2023-02-04T00:23:59.759Z,5.20
2023-02-04T00:26:26.467Z,5.10
2023-02-04T00:28:53.183Z,4.70
2023-02-04T00:31:19.963Z,4.30
2023-02-04T00:33:46.801Z,3.90
2023-02-04T00:36:13.487Z,3.60
2023-02-04T00:38:40.136Z,3.30
2023-02-04T00:41:07.053Z,3.10
2023-02-04T00:43:33.754Z,3.00
2023-02-04T00:46:00.562Z,2.90
2023-02-04T00:48:27.264Z,2.90
2023-02-04T00:50:54.293Z,2.80
2023-02-04T00:53:20.936Z,2.80
2023-02-04T00:55:47.762Z,2.70
2023-02-04T00:58:14.508Z,2.70
2023-02-04T01:00:41.744Z,2.70
2023-02-04T01:03:09.981Z,2.70
2023-02-04T01:05:36.834Z,2.70
2023-02-04T01:08:04.661Z,2.70
2023-02-04T01:10:31.600Z,2.70
2023-02-04T01:12:58.789Z,2.70
2023-02-04T01:15:26.962Z,2.70
2023-02-04T01:17:54.269Z,2.70
2023-02-04T01:20:20.945Z,2.70
2023-02-04T01:22:48.935Z,2.70
2023-02-04T01:25:15.620Z,2.70
2023-02-04T01:27:44.030Z,2.70
2023-02-04T01:30:11.753Z,2.70
2023-02-04T01:32:38.446Z,2.80
2023-02-04T01:35:05.260Z,2.80
2023-02-04T01:37:32.704Z,2.80
2023-02-04T01:39:59.376Z,2.80
2023-02-04T01:42:26.086Z,2.80
2023-02-04T01:44:52.930Z,2.80
2023-02-04T01:47:21.843Z,2.80
2023-02-04T01:49:50.398Z,2.80
2023-02-04T01:52:17.467Z,2.90
2023-02-04T01:54:44.264Z,2.90
2023-02-04T01:57:14.705Z,2.90
2023-02-04T01:59:43.906Z,2.90
2023-02-04T02:02:29.508Z,3.00
2023-02-04T02:04:57.430Z,3.00
2023-02-04T02:07:25.705Z,3.00
2023-02-04T02:09:52.410Z,3.00
2023-02-04T02:12:19.037Z,3.00
2023-02-04T02:14:45.718Z,3.00
2023-02-04T02:17:12.363Z,3.00
2023-02-04T02:19:39.766Z,3.00
2023-02-04T02:22:15.398Z,3.00
2023-02-04T02:24:42.055Z,3.00
2023-02-04T02:27:10.332Z,3.00
2023-02-04T02:29:38.892Z,3.00
2023-02-04T02:32:05.962Z,3.00
2023-02-04T02:34:33.377Z,2.90
2023-02-04T02:37:03.283Z,2.90
2023-02-04T02:39:30.252Z,2.80
2023-02-04T02:41:57.438Z,2.80
2023-02-04T02:44:24.927Z,2.70
2023-02-04T02:46:51.920Z,2.70
2023-02-04T02:49:19.082Z,2.70
2023-02-04T02:51:48.015Z,2.60
2023-02-04T02:54:19.623Z,2.60
2023-02-04T02:56:46.940Z,2.50
2023-02-04T02:59:14.500Z,2.40
2023-02-04T03:01:41.802Z,2.40
2023-02-04T03:04:09.405Z,2.30
2023-02-04T03:06:36.329Z,2.30
2023-02-04T03:09:03.101Z,2.20
2023-02-04T03:11:29.989Z,2.10
2023-02-04T03:13:57.714Z,2.00
2023-02-04T03:16:24.734Z,2.00
2023-02-04T03:18:51.498Z,2.00
2023-02-04T03:21:18.259Z,1.90
2023-02-04T03:23:45.083Z,1.90
2023-02-04T03:26:31.647Z,1.90
2023-02-04T03:28:59.432Z,1.90
2023-02-04T03:31:26.308Z,1.80
2023-02-04T03:33:52.983Z,1.80
2023-02-04T03:36:20.051Z,1.70
2023-02-04T03:38:46.760Z,1.70
2023-02-04T03:41:13.431Z,1.60
2023-02-04T03:43:40.111Z,1.60
2023-02-04T03:46:06.803Z,1.50
2023-02-04T03:48:33.527Z,1.50
2023-02-04T03:51:00.476Z,1.50
2023-02-04T03:53:27.166Z,1.50
2023-02-04T03:55:53.829Z,1.50
2023-02-04T03:58:21.028Z,1.50
2023-02-04T04:00:47.754Z,1.50
2023-02-04T04:03:14.522Z,1.50
2023-02-04T04:05:41.156Z,1.60
2023-02-04T04:08:07.781Z,1.60
2023-02-04T04:10:34.751Z,1.60
2023-02-04T04:13:01.544Z,1.70
2023-02-04T04:15:28.218Z,1.70
2023-02-04T04:17:54.969Z,1.80
2023-02-04T04:20:25.421Z,1.80
2023-02-04T04:22:52.250Z,1.90
2023-02-04T04:25:19.168Z,1.90
2023-02-04T04:27:45.912Z,2.00
2023-02-04T04:30:12.723Z,2.00
2023-02-04T04:32:39.348Z,2.00
2023-02-04T04:35:06.117Z,1.80
2023-02-04T04:37:34.743Z,1.80
2023-02-04T04:40:01.805Z,1.80
2023-02-04T04:42:28.488Z,1.70
2023-02-04T04:44:55.137Z,1.70
2023-02-04T04:47:21.902Z,1.60
2023-02-04T04:49:48.570Z,1.50
2023-02-04T04:52:15.213Z,1.40
2023-02-04T04:54:41.847Z,1.40
2023-02-04T04:57:08.512Z,1.30
2023-02-04T04:59:35.232Z,1.30
2023-02-04T05:02:01.995Z,1.40
2023-02-04T05:04:28.690Z,1.40
2023-02-04T05:06:55.409Z,1.40
2023-02-04T05:09:22.094Z,1.40
2023-02-04T05:11:48.766Z,1.40
2023-02-04T05:14:15.509Z,1.40
2023-02-04T05:16:42.221Z,1.30
2023-02-04T05:19:08.912Z,1.30
2023-02-04T05:21:35.548Z,1.30
2023-02-04T05:24:02.225Z,1.30
2023-02-04T05:26:31.038Z,1.20
2023-02-04T05:29:00.309Z,1.20
2023-02-04T05:31:27.263Z,1.20
2023-02-04T05:33:54.582Z,1.20
2023-02-04T05:36:21.496Z,1.20
2023-02-04T05:38:48.128Z,1.20
2023-02-04T05:41:14.761Z,1.10
2023-02-04T05:43:41.415Z,1.20
2023-02-04T05:46:08.098Z,1.10
2023-02-04T05:48:34.757Z,1.10
2023-02-04T05:51:01.529Z,1.10
2023-02-04T05:53:28.190Z,1.10
2023-02-04T05:55:54.847Z,1.00
2023-02-04T05:58:21.495Z,1.00
2023-02-04T06:00:48.145Z,1.00
2023-02-04T06:03:14.868Z,1.00
2023-02-04T06:05:41.600Z,1.00
2023-02-04T06:08:08.308Z,0.90
2023-02-04T06:10:34.975Z,0.90
2023-02-04T06:13:01.624Z,0.80
2023-02-04T06:15:28.297Z,0.80
2023-02-04T06:17:54.904Z,0.80
2023-02-04T06:20:21.587Z,0.80
2023-02-04T06:22:51.595Z,0.80
2023-02-04T06:25:18.576Z,0.70
2023-02-04T06:27:45.320Z,0.60
2023-02-04T06:30:12.766Z,0.60
2023-02-04T06:32:39.491Z,0.60
2023-02-04T06:35:06.295Z,0.60
2023-02-04T06:37:32.960Z,0.60
2023-02-04T06:39:59.568Z,0.60
2023-02-04T06:42:26.217Z,0.50
2023-02-04T06:44:53.233Z,0.60
2023-02-04T06:47:20.322Z,0.60
2023-02-04T06:49:46.992Z,0.60
2023-02-04T06:52:13.678Z,0.60
2023-02-04T06:54:40.324Z,0.60
2023-02-04T06:57:07.097Z,0.70
2023-02-04T06:59:34.480Z,0.70
2023-02-04T07:02:01.598Z,0.70
2023-02-04T07:04:28.413Z,0.80
2023-02-04T07:06:55.198Z,0.80
2023-02-04T07:09:22.061Z,0.90
2023-02-04T07:11:48.789Z,0.90
2023-02-04T07:14:15.459Z,1.00
2023-02-04T07:16:42.061Z,1.20
2023-02-04T07:19:08.723Z,1.50
2023-02-04T07:21:35.381Z,1.80
2023-02-04T07:24:02.063Z,2.00
2023-02-04T07:26:28.712Z,2.10
2023-02-04T07:28:55.443Z,2.20
2023-02-04T07:31:22.172Z,2.70
2023-02-04T07:33:49.080Z,3.60
2023-02-04T07:36:15.970Z,4.00
2023-02-04T07:38:42.542Z,4.10
2023-02-04T07:41:09.192Z,3.90
2023-02-04T07:43:35.971Z,3.80
2023-02-04T07:46:02.642Z,3.60
2023-02-04T07:48:29.346Z,3.40
2023-02-04T07:50:55.994Z,3.30
2023-02-04T07:53:22.665Z,3.20
2023-02-04T07:55:49.329Z,3.10
2023-02-04T07:58:15.950Z,3.10
2023-02-04T08:00:42.630Z,3.40
2023-02-04T08:03:09.459Z,4.10
2023-02-04T08:05:36.432Z,4.60
2023-02-04T08:08:03.465Z,5.20
2023-02-04T08:10:30.443Z,5.30
2023-02-04T08:12:57.388Z,5.10
2023-02-04T08:15:24.072Z,4.90
2023-02-04T08:17:50.838Z,4.60
2023-02-04T08:20:18.431Z,4.40
2023-02-04T08:22:45.432Z,4.20
2023-02-04T08:25:12.469Z,4.20
2023-02-04T08:27:39.209Z,4.10
2023-02-04T08:30:06.715Z,4.10
2023-02-04T08:32:33.487Z,4.20
2023-02-04T08:35:00.169Z,4.30
2023-02-04T08:37:26.962Z,4.60
2023-02-04T08:39:53.624Z,6.10
2023-02-04T08:42:20.357Z,8.10
2023-02-04T08:44:47.084Z,10.20
2023-02-04T08:47:13.864Z,11.70
2023-02-04T08:49:40.681Z,12.60
2023-02-04T08:52:08.034Z,12.90
2023-02-04T08:54:35.222Z,13.20
2023-02-04T08:57:02.394Z,12.90
2023-02-04T08:59:29.568Z,12.50
2023-02-04T09:01:56.552Z,12.70
2023-02-04T09:04:23.657Z,12.90
2023-02-04T09:06:51.127Z,12.40
2023-02-04T09:09:18.084Z,11.70
2023-02-04T09:11:44.849Z,11.10
2023-02-04T09:14:11.703Z,10.50
2023-02-04T09:16:38.511Z,9.90
2023-02-04T09:19:05.596Z,9.60
2023-02-04T09:21:32.295Z,9.40
2023-02-04T09:23:59.010Z,9.30
2023-02-04T09:26:25.637Z,9.40
2023-02-04T09:28:52.278Z,9.40
2023-02-04T09:31:19.204Z,9.50
2023-02-04T09:33:46.091Z,10.00
2023-02-04T09:36:12.792Z,10.40
2023-02-04T09:38:39.532Z,10.40
2023-02-04T09:41:10.427Z,10.20
2023-02-04T09:43:40.300Z,9.80
2023-02-04T09:46:09.398Z,9.30
2023-02-04T09:48:36.093Z,9.60
2023-02-04T09:51:04.672Z,10.70
2023-02-04T09:53:31.704Z,11.20
2023-02-04T09:55:58.662Z,10.90
2023-02-04T09:58:26.568Z,10.50
2023-02-04T10:00:58.180Z,9.80
2023-02-04T10:03:24.930Z,9.40
2023-02-04T10:05:51.599Z,10.30
2023-02-04T10:08:23.241Z,12.00
2023-02-04T10:10:49.871Z,12.90
2023-02-04T10:13:18.445Z,13.70
2023-02-04T10:15:46.040Z,13.80
2023-02-04T10:18:16.778Z,13.90
2023-02-04T10:20:43.390Z,13.80
2023-02-04T10:23:12.626Z,14.40
2023-02-04T10:25:39.467Z,15.40
2023-02-04T10:28:06.156Z,16.80
2023-02-04T10:30:39.271Z,18.30
2023-02-04T10:33:15.294Z,19.40
2023-02-04T10:35:49.387Z,20.20
2023-02-04T10:38:16.396Z,21.00
2023-02-04T10:40:46.114Z,21.40
2023-02-04T10:43:15.769Z,20.90
2023-02-04T10:45:47.090Z,20.20
2023-02-04T10:48:16.075Z,20.40
2023-02-04T10:50:43.022Z,20.50
2023-02-04T10:53:29.482Z,19.50
2023-02-04T10:55:57.257Z,18.40
2023-02-04T10:58:26.734Z,17.00
2023-02-04T11:00:53.387Z,15.60
2023-02-04T11:03:23.064Z,14.60
2023-02-04T11:05:50.236Z,13.90
2023-02-04T11:08:21.874Z,13.90
2023-02-04T11:10:54.952Z,14.40
2023-02-04T11:13:23.170Z,14.80
2023-02-04T11:15:54.818Z,15.50
2023-02-04T11:18:21.537Z,15.90
2023-02-04T11:20:49.394Z,16.00
2023-02-04T11:23:32.274Z,15.50
2023-02-04T11:26:03.677Z,14.70
2023-02-04T11:28:39.165Z,14.00
2023-02-04T11:31:13.479Z,13.30
2023-02-04T11:33:41.556Z,12.50
2023-02-04T11:36:09.792Z,11.60
2023-02-04T11:38:38.233Z,10.80
2023-02-04T11:41:05.456Z,10.10
2023-02-04T11:43:35.408Z,9.70
2023-02-04T11:46:11.419Z,9.40
2023-02-04T11:48:38.424Z,9.30
2023-02-04T11:51:11.765Z,9.20
2023-02-04T11:53:38.520Z,9.20
2023-02-04T11:56:05.218Z,9.10
2023-02-04T11:58:32.285Z,9.00
2023-02-04T12:00:59.292Z,8.90
2023-02-04T12:03:27.546Z,9.00
2023-02-04T12:05:57.145Z,9.30
2023-02-04T12:08:23.707Z,9.40
2023-02-04T12:10:50.360Z,9.50
2023-02-04T12:13:23.497Z,9.30
2023-02-04T12:16:04.013Z,9.10
2023-02-04T12:18:31.503Z,8.80
2023-02-04T12:20:58.818Z,8.50
2023-02-04T12:23:26.616Z,8.20
2023-02-04T12:25:53.417Z,8.00
2023-02-04T12:28:20.179Z,7.80
2023-02-04T12:30:46.875Z,7.50
2023-02-04T12:33:14.975Z,7.30
2023-02-04T12:35:41.846Z,7.10
2023-02-04T12:38:09.135Z,7.10
2023-02-04T12:40:36.209Z,7.10
2023-02-04T12:43:02.968Z,7.30
2023-02-04T12:45:29.792Z,7.50
2023-02-04T12:47:56.527Z,7.70
2023-02-04T12:50:23.278Z,7.80
2023-02-04T12:52:54.338Z,7.70
2023-02-04T12:55:21.411Z,7.60
2023-02-04T12:57:48.140Z,7.40
2023-02-04T13:00:15.766Z,7.20
2023-02-04T13:02:42.402Z,6.90
2023-02-04T13:05:09.140Z,6.60
2023-02-04T13:07:35.867Z,6.40
2023-02-04T13:10:02.628Z,6.10
2023-02-04T13:12:29.267Z,6.00
2023-02-04T13:14:55.907Z,5.90
2023-02-04T13:17:22.550Z,5.90
2023-02-04T13:19:49.233Z,5.90
2023-02-04T13:22:15.823Z,6.10
2023-02-04T13:24:43.135Z,6.20
2023-02-04T13:27:09.760Z,6.30
2023-02-04T13:29:36.569Z,6.50
2023-02-04T13:32:03.252Z,6.70
2023-02-04T13:34:29.883Z,6.80
2023-02-04T13:36:56.571Z,6.70
2023-02-04T13:39:23.727Z,6.60
2023-02-04T13:41:50.380Z,6.40
2023-02-04T13:44:16.993Z,6.30
2023-02-04T13:46:43.669Z,6.10
2023-02-04T13:49:10.298Z,5.90
2023-02-04T13:51:36.952Z,5.70
2023-02-04T13:54:03.630Z,5.50
2023-02-04T13:56:32.912Z,5.30
2023-02-04T13:58:59.571Z,5.20
2023-02-04T14:01:26.314Z,5.10
2023-02-04T14:03:52.988Z,5.00
2023-02-04T14:06:21.601Z,5.00
2023-02-04T14:08:48.392Z,5.00
2023-02-04T14:11:15.087Z,5.10
2023-02-04T14:13:41.990Z,5.20
2023-02-04T14:16:09.481Z,5.30
2023-02-04T14:18:36.982Z,5.50
2023-02-04T14:21:03.824Z,5.60
2023-02-04T14:23:30.542Z,5.60
2023-02-04T14:25:57.198Z,5.50
2023-02-04T14:28:23.898Z,5.50
2023-02-04T14:30:50.622Z,5.40
2023-02-04T14:33:18.226Z,5.20
2023-02-04T14:35:44.905Z,5.20
2023-02-04T14:38:12.301Z,5.10
2023-02-04T14:40:38.948Z,5.10
2023-02-04T14:43:05.542Z,5.20
2023-02-04T14:45:32.215Z,5.30
2023-02-04T14:48:00.461Z,5.40
2023-02-04T14:50:28.662Z,5.50
2023-02-04T14:52:56.798Z,5.50
2023-02-04T14:55:23.992Z,5.60
2023-02-04T14:57:50.634Z,5.60
2023-02-04T15:00:17.785Z,5.50
2023-02-04T15:02:44.495Z,5.30
2023-02-04T15:05:11.643Z,5.10
2023-02-04T15:07:39.240Z,5.00
2023-02-04T15:10:06.213Z,4.90
2023-02-04T15:12:33.078Z,4.90
2023-02-04T15:14:59.716Z,4.80
2023-02-04T15:17:26.360Z,4.70
2023-02-04T15:19:53.089Z,4.60
2023-02-04T15:22:19.880Z,4.60
2023-02-04T15:24:46.782Z,4.50
2023-02-04T15:27:13.428Z,4.50
2023-02-04T15:29:40.064Z,4.40
2023-02-04T15:32:06.773Z,4.30
2023-02-04T15:34:35.882Z,4.20
2023-02-04T15:37:03.326Z,4.10
2023-02-04T15:39:30.053Z,4.00
2023-02-04T15:41:57.192Z,3.90
2023-02-04T15:44:24.280Z,3.80
2023-02-04T15:46:51.856Z,3.70
2023-02-04T15:49:18.685Z,3.60
2023-02-04T15:51:45.404Z,3.50
2023-02-04T15:54:12.531Z,3.40
2023-02-04T15:56:39.550Z,3.40
2023-02-04T15:59:06.457Z,3.30
2023-02-04T16:01:33.439Z,3.20
2023-02-04T16:04:00.785Z,3.10
2023-02-04T16:06:27.572Z,3.00
2023-02-04T16:08:54.668Z,2.90
2023-02-04T16:11:21.440Z,2.70
2023-02-04T16:13:48.497Z,2.60
2023-02-04T16:16:15.260Z,2.50
2023-02-04T16:18:42.007Z,2.40
2023-02-04T16:21:08.629Z,2.30
2023-02-04T16:23:35.259Z,2.20
2023-02-04T16:26:01.934Z,2.10
2023-02-04T16:28:28.551Z,2.00
2023-02-04T16:30:55.316Z,1.90
2023-02-04T16:33:22.018Z,1.90
2023-02-04T16:36:00.978Z,1.80
2023-02-04T16:38:28.414Z,1.80
2023-02-04T16:40:55.109Z,1.70
2023-02-04T16:43:21.948Z,1.60
2023-02-04T16:45:48.714Z,1.60
2023-02-04T16:48:15.428Z,1.60
2023-02-04T16:50:42.139Z,1.50
2023-02-04T16:53:14.842Z,1.50
2023-02-04T16:55:42.344Z,1.50
2023-02-04T16:58:09.232Z,1.40
2023-02-04T17:00:37.723Z,1.40
2023-02-04T17:03:05.756Z,1.40
2023-02-04T17:05:32.616Z,1.30
2023-02-04T17:07:59.714Z,1.30
2023-02-04T17:10:45.183Z,1.20
2023-02-04T17:13:12.052Z,1.20
2023-02-04T17:15:38.943Z,1.10
2023-02-04T17:18:05.608Z,1.10
2023-02-04T17:20:32.291Z,1.10
2023-02-04T17:22:59.055Z,1.00
2023-02-04T17:25:25.679Z,1.00
2023-02-04T17:27:52.577Z,1.00
2023-02-04T17:30:20.386Z,1.00
2023-02-04T17:32:47.037Z,1.00
2023-02-04T17:35:13.692Z,0.90
2023-02-04T17:37:40.429Z,0.90
2023-02-04T17:40:07.377Z,0.90
2023-02-04T17:42:34.161Z,0.80
2023-02-04T17:45:00.816Z,0.80
2023-02-04T17:47:27.723Z,0.80
2023-02-04T17:49:54.473Z,0.80
2023-02-04T17:52:21.634Z,0.80
2023-02-04T17:54:48.305Z,0.70
2023-02-04T17:57:18.895Z,0.70
2023-02-04T17:59:46.044Z,0.60
2023-02-04T18:02:23.801Z,0.60
2023-02-04T18:04:50.674Z,0.60
2023-02-04T18:07:17.345Z,0.50
2023-02-04T18:09:44.013Z,0.40
2023-02-04T18:12:15.267Z,0.40
2023-02-04T18:14:44.663Z,0.40
2023-02-04T18:17:11.944Z,0.30
2023-02-04T18:19:40.468Z,0.30
2023-02-04T18:22:12.014Z,0.30
2023-02-04T18:24:39.843Z,0.30
2023-02-04T18:27:13.236Z,0.20
2023-02-04T18:29:40.819Z,0.20
2023-02-04T18:32:16.807Z,0.20
2023-02-04T18:34:44.636Z,0.10
2023-02-04T18:37:29.290Z,0.10
2023-02-04T18:40:16.439Z,0.10
2023-02-04T18:42:44.018Z,0.00
2023-02-04T18:45:27.557Z,0.10
2023-02-04T18:48:01.060Z,0.00
2023-02-04T18:50:29.836Z,0.00
2023-02-04T18:53:01.365Z,0.00
2023-02-04T18:55:32.823Z,0.00
2023-02-04T18:58:13.021Z,0.00
2023-02-04T19:00:40.479Z,0.00
2023-02-04T19:03:20.224Z,0.00
2023-02-04T19:05:49.004Z,-0.10
2023-02-04T19:08:23.544Z,0.00
2023-02-04T19:10:51.341Z,0.00
2023-02-04T19:13:21.334Z,-0.10
2023-02-04T19:15:58.270Z,0.00
2023-02-04T19:18:29.169Z,0.00
2023-02-04T19:21:00.310Z,0.00
2023-02-04T19:23:26.936Z,0.00
2023-02-04T19:25:53.707Z,0.00
2023-02-04T19:28:33.656Z,0.00
2023-02-04T19:31:01.328Z,0.00
2023-02-04T19:33:32.224Z,0.00
2023-02-04T19:36:00.904Z,0.00
2023-02-04T19:38:39.520Z,0.00
2023-02-04T19:41:27.303Z,0.00
2023-02-04T19:44:06.435Z,-0.10
2023-02-04T19:46:33.968Z,-0.10
2023-02-04T19:49:10.452Z,-0.20
2023-02-04T19:51:37.325Z,-0.20
2023-02-04T19:54:18.021Z,-0.30
2023-02-04T19:56:44.692Z,-0.30
2023-02-04T19:59:28.285Z,-0.30
2023-02-04T20:02:15.439Z,-0.30
2023-02-04T20:04:43.487Z,-0.40
2023-02-04T20:07:16.275Z,-0.40
2023-02-04T20:09:43.145Z,-0.40
2023-02-04T20:12:16.678Z,-0.40
2023-02-04T20:14:51.921Z,-0.40
2023-02-04T20:17:20.573Z,-0.40
2023-02-04T20:19:47.738Z,-0.50
2023-02-04T20:22:17.331Z,-0.50
2023-02-04T20:24:48.603Z,-0.50
2023-02-04T20:27:28.763Z,-0.50
2023-02-04T20:30:00.389Z,-0.50
2023-02-04T20:32:27.928Z,-0.50
2023-02-04T20:35:06.809Z,-0.50
2023-02-04T20:37:33.744Z,-0.60
2023-02-04T20:40:00.836Z,-0.60
2023-02-04T20:42:29.180Z,-0.60
2023-02-04T20:45:00.396Z,-0.60
2023-02-04T20:47:29.736Z,-0.70
2023-02-04T20:49:57.535Z,-0.70
2023-02-04T20:52:39.506Z,-0.80
2023-02-04T20:55:36.027Z,-0.80
2023-02-04T20:58:11.002Z,-0.80
2023-02-04T21:00:39.347Z,-0.80
2023-02-04T21:03:20.355Z,-0.90
2023-02-04T21:05:49.368Z,-0.90
2023-02-04T21:08:20.432Z,-0.90
2023-02-04T21:10:47.286Z,-0.90
2023-02-04T21:13:13.917Z,-0.90
2023-02-04T21:15:40.610Z,-0.90
2023-02-04T21:18:07.528Z,-1.00
2023-02-04T21:20:34.801Z,-1.00
2023-02-04T21:23:01.739Z,-1.00
2023-02-04T21:25:28.478Z,-1.00
2023-02-04T21:27:56.429Z,-1.00
2023-02-04T21:30:26.096Z,-1.10
2023-02-04T21:32:52.697Z,-1.10
2023-02-04T21:35:24.240Z,-1.10
2023-02-04T21:37:51.693Z,-1.10
2023-02-04T21:40:23.812Z,-1.10
2023-02-04T21:42:50.991Z,-1.10
2023-02-04T21:45:18.487Z,-1.10
2023-02-04T21:47:45.875Z,-1.10
2023-02-04T21:50:14.473Z,-1.10
2023-02-04T21:52:41.397Z,-1.10
2023-02-04T21:55:08.572Z,-1.00
2023-02-04T21:57:35.386Z,-1.00
2023-02-04T22:00:02.200Z,-1.00
2023-02-04T22:02:31.547Z,-1.00
2023-02-04T22:04:58.175Z,-1.00
2023-02-04T22:07:24.835Z,-1.00
2023-02-04T22:09:51.494Z,-1.10
2023-02-04T22:12:18.499Z,-1.20
2023-02-04T22:14:45.302Z,-1.20
2023-02-04T22:17:12.004Z,-1.20
2023-02-04T22:19:38.677Z,-1.20
2023-02-04T22:22:05.301Z,-1.20
2023-02-04T22:24:31.941Z,-1.30
2023-02-04T22:26:59.337Z,-1.30
2023-02-04T22:29:29.879Z,-1.30
2023-02-04T22:31:56.683Z,-1.30
2023-02-04T22:34:23.419Z,-1.30
2023-02-04T22:36:50.069Z,-1.20
2023-02-04T22:39:17.301Z,-1.20
2023-02-04T22:41:44.241Z,-1.10
2023-02-04T22:44:10.956Z,-1.00
2023-02-04T22:46:37.664Z,-1.00
2023-02-04T22:49:05.902Z,-0.90
2023-02-04T22:51:32.825Z,-0.80
2023-02-04T22:54:03.865Z,-0.80
2023-02-04T22:56:30.706Z,-0.70
2023-02-04T22:58:57.425Z,-0.70
2023-02-04T23:01:24.063Z,-0.60
2023-02-04T23:03:50.717Z,-0.60
2023-02-04T23:06:17.517Z,-0.50
2023-02-04T23:08:44.188Z,-0.50
2023-02-04T23:11:11.822Z,-0.40
2023-02-04T23:13:38.671Z,-0.40
2023-02-04T23:16:05.571Z,-0.40
2023-02-04T23:18:32.239Z,-0.40
2023-02-04T23:20:58.920Z,-0.30
2023-02-04T23:23:27.585Z,-0.40
2023-02-04T23:25:54.310Z,-0.40
2023-02-04T23:28:21.000Z,-0.40
2023-02-04T23:30:47.766Z,-0.40
2023-02-04T23:33:14.440Z,-0.40
2023-02-04T23:35:41.117Z,-0.40
2023-02-04T23:38:07.899Z,-0.40
2023-02-04T23:40:34.576Z,-0.40
2023-02-04T23:43:01.173Z,-0.40
2023-02-04T23:45:27.800Z,-0.40
2023-02-04T23:47:54.462Z,-0.40
2023-02-04T23:50:21.137Z,-0.40
2023-02-04T23:52:47.787Z,-0.40
2023-02-04T23:55:14.527Z,-0.50
2023-02-04T23:57:41.712Z,-0.50
